createdAt,value
2019-02-18T00:00:03.897Z,52.25
2019-02-18T00:02:37.505Z,52.29
2019-02-18T00:05:08.884Z,52.33
2019-02-18T00:07:40.134Z,52.36
2019-02-18T00:10:11.330Z,52.39
2019-02-18T00:12:42.542Z,52.43
2019-02-18T00:15:13.743Z,52.47
2019-02-18T00:17:44.894Z,52.50
2019-02-18T00:20:16.134Z,52.57
2019-02-18T00:22:47.302Z,52.67
2019-02-18T00:25:18.457Z,52.73
2019-02-18T00:27:49.728Z,52.80
2019-02-18T00:30:20.952Z,52.86
2019-02-18T00:32:52.209Z,52.92
2019-02-18T00:35:23.720Z,52.95
2019-02-18T00:37:54.995Z,52.99
2019-02-18T00:40:26.318Z,52.99
2019-02-18T00:42:57.493Z,52.99
2019-02-18T00:45:28.689Z,53.03
2019-02-18T00:47:59.954Z,53.06
2019-02-18T00:50:31.161Z,53.08
2019-02-18T00:53:04.022Z,53.13
2019-02-18T00:55:35.569Z,53.18
2019-02-18T00:58:06.686Z,53.22
2019-02-18T01:00:37.920Z,53.25
2019-02-18T01:03:09.262Z,53.27
2019-02-18T01:05:40.587Z,53.28
2019-02-18T01:08:11.776Z,53.33
2019-02-18T01:10:43.041Z,53.32
2019-02-18T01:13:14.311Z,53.34
2019-02-18T01:15:45.446Z,53.35
2019-02-18T01:18:16.682Z,53.38
2019-02-18T01:20:47.802Z,53.38
2019-02-18T01:23:19.274Z,53.38
2019-02-18T01:25:50.688Z,53.43
2019-02-18T01:28:21.900Z,53.44
2019-02-18T01:30:53.460Z,53.47
2019-02-18T01:33:24.683Z,53.49
2019-02-18T01:35:56.214Z,53.51
2019-02-18T01:38:27.413Z,53.55
2019-02-18T01:40:58.701Z,53.58
2019-02-18T01:43:29.952Z,53.65
2019-02-18T01:46:01.313Z,53.71
2019-02-18T01:48:32.501Z,53.75
2019-02-18T01:51:04.901Z,53.80
2019-02-18T01:53:36.221Z,53.87
2019-02-18T01:56:07.401Z,53.94
2019-02-18T01:58:38.647Z,53.97
2019-02-18T02:01:09.793Z,53.96
2019-02-18T02:03:41.302Z,53.97
2019-02-18T02:06:12.544Z,53.97
2019-02-18T02:08:43.801Z,53.98
2019-02-18T02:11:15.162Z,53.99
2019-02-18T02:13:46.355Z,54.00
2019-02-18T02:16:17.506Z,54.00
2019-02-18T02:18:48.723Z,54.02
2019-02-18T02:21:19.955Z,54.04
2019-02-18T02:23:51.220Z,54.15
2019-02-18T02:26:22.418Z,54.11
2019-02-18T02:28:53.667Z,54.10
2019-02-18T02:31:25.876Z,54.12
2019-02-18T02:33:57.217Z,54.12
2019-02-18T02:36:28.453Z,54.13
2019-02-18T02:38:59.719Z,54.13
2019-02-18T02:41:31.550Z,54.13
2019-02-18T02:44:03.011Z,54.16
2019-02-18T02:46:34.256Z,54.21
2019-02-18T02:49:05.503Z,54.25
2019-02-18T02:51:36.662Z,54.26
2019-02-18T02:54:09.011Z,54.28
2019-02-18T02:56:40.508Z,54.33
2019-02-18T02:59:11.741Z,54.35
2019-02-18T03:01:43.011Z,54.36
2019-02-18T03:04:14.241Z,54.40
2019-02-18T03:06:45.501Z,54.44
2019-02-18T03:09:16.846Z,54.48
2019-02-18T03:11:48.298Z,54.47
2019-02-18T03:14:19.485Z,54.48
2019-02-18T03:16:50.723Z,54.47
2019-02-18T03:19:21.928Z,54.48
2019-02-18T03:21:53.165Z,54.48
2019-02-18T03:24:24.403Z,54.50
2019-02-18T03:26:55.570Z,54.53
2019-02-18T03:30:13.814Z,54.56
2019-02-18T03:32:50.024Z,54.60
2019-02-18T03:35:21.157Z,54.67
2019-02-18T03:37:52.365Z,54.65
2019-02-18T03:40:23.873Z,54.64
2019-02-18T03:42:55.163Z,54.66
2019-02-18T03:45:26.379Z,54.68
2019-02-18T03:47:58.641Z,54.71
2019-02-18T03:50:29.831Z,54.71
2019-02-18T03:53:01.042Z,54.71
2019-02-18T03:55:32.311Z,54.73
2019-02-18T03:58:03.494Z,54.73
2019-02-18T04:00:34.708Z,54.77
2019-02-18T04:03:05.899Z,54.82
2019-02-18T04:05:37.077Z,54.88
2019-02-18T04:08:08.253Z,54.87
2019-02-18T04:10:39.774Z,54.90
2019-02-18T04:13:11.070Z,54.94
2019-02-18T04:15:42.523Z,54.93
2019-02-18T04:18:26.384Z,54.95
2019-02-18T04:20:57.601Z,54.96
2019-02-18T04:23:28.771Z,55.04
2019-02-18T04:26:01.117Z,55.05
2019-02-18T04:28:32.434Z,55.08
2019-02-18T04:31:03.659Z,55.11
2019-02-18T04:33:35.026Z,55.12
2019-02-18T04:36:06.359Z,55.14
2019-02-18T04:38:37.528Z,55.11
2019-02-18T04:41:08.738Z,55.09
2019-02-18T04:43:42.215Z,55.09
2019-02-18T04:46:13.069Z,55.12
2019-02-18T04:48:44.242Z,55.13
2019-02-18T04:51:15.445Z,55.17
2019-02-18T04:53:46.733Z,55.19
2019-02-18T04:56:17.868Z,55.23
2019-02-18T04:58:49.098Z,55.21
2019-02-18T05:01:20.316Z,55.24
2019-02-18T05:03:51.545Z,55.23
2019-02-18T05:06:25.380Z,55.25
2019-02-18T05:09:05.087Z,55.26
2019-02-18T05:11:28.907Z,55.28
2019-02-18T05:14:00.212Z,55.38
2019-02-18T05:16:31.566Z,55.38
2019-02-18T05:19:02.768Z,55.34
2019-02-18T05:21:33.963Z,55.40
2019-02-18T05:24:05.182Z,55.42
2019-02-18T05:26:36.574Z,55.46
2019-02-18T05:29:08.009Z,55.49
2019-02-18T05:31:39.116Z,55.53
2019-02-18T05:34:10.372Z,55.53
2019-02-18T05:36:41.554Z,55.58
2019-02-18T05:39:18.081Z,55.61
2019-02-18T05:41:45.715Z,55.62
2019-02-18T05:44:16.976Z,55.63
2019-02-18T05:46:48.228Z,55.63
2019-02-18T05:49:19.446Z,55.62
2019-02-18T05:51:50.731Z,55.65
2019-02-18T05:54:21.918Z,55.67
2019-02-18T05:56:53.192Z,55.69
2019-02-18T05:59:24.525Z,55.70
2019-02-18T06:01:55.731Z,55.69
2019-02-18T06:04:26.952Z,55.72
2019-02-18T06:06:58.136Z,55.74
2019-02-18T06:09:30.360Z,55.74
2019-02-18T06:12:01.766Z,55.76
2019-02-18T06:14:33.004Z,55.86
2019-02-18T06:17:04.203Z,55.86
2019-02-18T06:19:35.359Z,55.76
2019-02-18T06:22:06.551Z,55.76
2019-02-18T06:24:37.853Z,55.75
2019-02-18T06:27:09.054Z,55.80
2019-02-18T06:29:40.245Z,55.72
2019-02-18T06:32:11.476Z,55.68
2019-02-18T06:34:42.801Z,55.67
2019-02-18T06:37:14.115Z,55.68
2019-02-18T06:39:45.313Z,55.70
2019-02-18T06:42:16.559Z,55.72
2019-02-18T06:45:11.917Z,55.77
2019-02-18T06:47:42.818Z,55.79
2019-02-18T06:50:14.033Z,55.86
2019-02-18T06:52:45.133Z,55.85
2019-02-18T06:55:16.319Z,55.87
2019-02-18T06:58:04.456Z,55.92
2019-02-18T07:00:47.875Z,55.94
2019-02-18T07:03:44.119Z,55.97
2019-02-18T07:06:30.107Z,55.97
2019-02-18T07:09:13.991Z,55.97
2019-02-18T07:12:06.970Z,55.97
2019-02-18T07:14:38.202Z,55.98
2019-02-18T07:17:10.452Z,55.96
2019-02-18T07:19:41.785Z,55.94
2019-02-18T07:22:13.027Z,55.93
2019-02-18T07:24:45.221Z,55.94
2019-02-18T07:27:16.461Z,55.96
2019-02-18T07:29:47.578Z,55.97
2019-02-18T07:32:18.835Z,55.96
2019-02-18T07:34:49.991Z,55.96
2019-02-18T07:37:21.167Z,55.96
2019-02-18T07:40:01.229Z,56.00
2019-02-18T07:42:25.374Z,55.97
2019-02-18T07:44:56.567Z,55.98
2019-02-18T07:47:27.818Z,55.99
2019-02-18T07:49:59.138Z,55.98
2019-02-18T07:52:30.379Z,55.98
2019-02-18T07:55:01.602Z,55.98
2019-02-18T07:57:32.770Z,55.97
2019-02-18T08:00:04.094Z,55.96
2019-02-18T08:02:36.280Z,55.97
2019-02-18T08:05:07.483Z,55.97
2019-02-18T08:07:38.706Z,55.92
2019-02-18T08:10:12.295Z,55.91
2019-02-18T08:12:43.221Z,55.91
2019-02-18T08:15:14.411Z,55.85
2019-02-18T08:17:45.718Z,55.82
2019-02-18T08:20:16.905Z,55.79
2019-02-18T08:22:48.111Z,55.78
2019-02-18T08:25:19.404Z,55.74
2019-02-18T08:27:50.610Z,55.72
2019-02-18T08:30:21.798Z,55.67
2019-02-18T08:32:53.075Z,55.68
2019-02-18T08:35:24.397Z,55.64
2019-02-18T08:37:55.570Z,55.60
2019-02-18T08:40:26.810Z,55.58
2019-02-18T08:42:58.018Z,55.54
2019-02-18T08:45:29.256Z,55.48
2019-02-18T08:48:00.441Z,55.44
2019-02-18T08:50:31.720Z,55.43
2019-02-18T08:53:02.902Z,55.37
2019-02-18T08:55:34.195Z,55.31
2019-02-18T08:58:05.476Z,55.25
2019-02-18T09:00:36.615Z,55.24
2019-02-18T09:03:07.825Z,55.22
2019-02-18T09:05:39.047Z,55.15
2019-02-18T09:08:10.277Z,55.10
2019-02-18T09:10:42.536Z,55.06
2019-02-18T09:13:14.828Z,55.00
2019-02-18T09:15:46.066Z,54.94
2019-02-18T09:18:17.352Z,54.89
2019-02-18T09:20:48.754Z,54.83
2019-02-18T09:23:36.847Z,54.78
2019-02-18T09:26:08.087Z,54.70
2019-02-18T09:28:39.304Z,54.62
2019-02-18T09:31:10.507Z,54.52
2019-02-18T09:33:42.249Z,54.38
2019-02-18T09:36:13.393Z,54.30
2019-02-18T09:38:44.708Z,54.20
2019-02-18T09:41:15.883Z,54.12
2019-02-18T09:43:47.076Z,54.03
2019-02-18T09:46:18.297Z,53.91
2019-02-18T09:48:50.591Z,53.81
2019-02-18T09:51:21.847Z,53.73
2019-02-18T09:53:53.114Z,53.65
2019-02-18T09:56:24.366Z,53.55
2019-02-18T09:58:55.613Z,53.45
2019-02-18T10:01:26.920Z,53.37
2019-02-18T10:03:58.138Z,53.28
2019-02-18T10:06:29.313Z,53.22
2019-02-18T10:09:00.656Z,53.17
2019-02-18T10:11:33.602Z,53.05
2019-02-18T10:14:04.916Z,52.89
2019-02-18T10:16:36.276Z,52.74
2019-02-18T10:19:07.412Z,52.66
2019-02-18T10:21:38.560Z,52.55
2019-02-18T10:24:09.792Z,52.42
2019-02-18T10:26:40.956Z,52.33
2019-02-18T10:29:12.356Z,52.17
2019-02-18T10:31:43.561Z,52.02
2019-02-18T10:34:14.915Z,51.92
2019-02-18T10:36:46.156Z,51.83
2019-02-18T10:39:17.379Z,51.74
2019-02-18T10:41:48.755Z,51.63
2019-02-18T10:44:19.990Z,51.45
2019-02-18T10:46:51.507Z,51.25
2019-02-18T10:49:22.840Z,51.21
2019-02-18T10:51:54.625Z,51.11
2019-02-18T10:54:26.055Z,51.04
2019-02-18T10:56:57.260Z,50.95
2019-02-18T10:59:28.513Z,50.74
2019-02-18T11:01:59.671Z,50.59
2019-02-18T11:04:31.154Z,50.32
2019-02-18T11:07:02.476Z,50.25
2019-02-18T11:09:33.702Z,50.16
2019-02-18T11:12:05.078Z,50.03
2019-02-18T11:14:36.279Z,49.85
2019-02-18T11:17:07.577Z,49.74
2019-02-18T11:19:38.821Z,49.59
2019-02-18T11:22:10.115Z,49.49
2019-02-18T11:24:41.560Z,49.42
2019-02-18T11:27:12.917Z,49.22
2019-02-18T11:29:44.198Z,49.09
2019-02-18T11:32:15.492Z,49.02
2019-02-18T11:34:46.718Z,48.83
2019-02-18T11:37:17.952Z,48.69
2019-02-18T11:39:49.156Z,48.42
2019-02-18T11:42:20.428Z,48.30
2019-02-18T11:44:51.756Z,48.17
2019-02-18T11:47:22.971Z,47.99
2019-02-18T11:49:55.250Z,47.65
2019-02-18T11:52:26.726Z,47.60
2019-02-18T11:54:57.937Z,47.31
2019-02-18T11:57:31.638Z,47.19
2019-02-18T12:00:02.536Z,47.09
2019-02-18T12:02:34.984Z,46.86
2019-02-18T12:05:06.813Z,46.65
2019-02-18T12:07:38.117Z,46.53
2019-02-18T12:10:09.815Z,46.26
2019-02-18T12:12:41.652Z,46.22
2019-02-18T12:15:13.083Z,46.11
2019-02-18T12:17:44.348Z,46.02
2019-02-18T12:20:15.560Z,45.96
2019-02-18T12:22:47.064Z,45.79
2019-02-18T12:25:18.277Z,45.67
2019-02-18T12:27:49.506Z,45.33
2019-02-18T12:30:20.817Z,45.21
2019-02-18T12:32:52.144Z,45.06
2019-02-18T12:35:30.964Z,44.86
2019-02-18T12:37:56.284Z,44.61
2019-02-18T12:40:27.542Z,44.58
2019-02-18T12:42:58.682Z,44.42
2019-02-18T12:45:30.030Z,44.11
2019-02-18T12:48:01.289Z,44.20
2019-02-18T12:50:32.622Z,44.06
2019-02-18T12:53:04.323Z,43.84
2019-02-18T12:55:35.612Z,43.79
2019-02-18T12:58:07.113Z,43.74
2019-02-18T13:00:38.362Z,43.53
2019-02-18T13:03:09.657Z,43.27
2019-02-18T13:05:40.964Z,43.07
2019-02-18T13:08:12.168Z,42.97
2019-02-18T13:10:43.367Z,42.88
2019-02-18T13:13:14.768Z,42.90
2019-02-18T13:15:46.065Z,42.77
2019-02-18T13:18:17.284Z,42.39
2019-02-18T13:20:48.645Z,41.79
2019-02-18T13:23:19.852Z,41.20
2019-02-18T13:25:51.137Z,40.63
2019-02-18T13:28:22.288Z,40.03
2019-02-18T13:30:53.495Z,39.42
2019-02-18T13:33:24.717Z,38.80
2019-02-18T13:35:56.289Z,38.13
2019-02-18T13:38:27.562Z,37.43
2019-02-18T13:40:58.806Z,36.74
2019-02-18T13:43:30.088Z,36.17
2019-02-18T13:46:01.303Z,35.57
2019-02-18T13:48:32.960Z,34.91
2019-02-18T13:51:04.180Z,34.38
2019-02-18T13:53:35.567Z,33.95
2019-02-18T13:56:07.842Z,33.67
2019-02-18T13:58:39.139Z,33.51
2019-02-18T14:01:11.919Z,33.27
2019-02-18T14:03:43.126Z,33.13
2019-02-18T14:06:14.361Z,32.86
2019-02-18T14:08:45.779Z,32.58
2019-02-18T14:11:16.998Z,32.27
2019-02-18T14:13:48.673Z,31.93
2019-02-18T14:16:19.810Z,31.65
2019-02-18T14:18:51.179Z,31.41
2019-02-18T14:21:22.427Z,31.10
2019-02-18T14:23:53.610Z,30.77
2019-02-18T14:26:25.431Z,30.57
2019-02-18T14:28:56.636Z,30.33
2019-02-18T14:31:27.984Z,30.12
2019-02-18T14:33:59.180Z,29.90
2019-02-18T14:36:30.424Z,29.65
2019-02-18T14:39:02.223Z,29.45
2019-02-18T14:41:34.156Z,29.29
2019-02-18T14:44:05.591Z,28.99
2019-02-18T14:46:36.780Z,28.79
2019-02-18T14:49:08.014Z,28.56
2019-02-18T14:51:39.694Z,28.35
2019-02-18T14:54:10.922Z,28.43
2019-02-18T14:56:42.511Z,28.34
2019-02-18T14:59:13.732Z,28.36
2019-02-18T15:01:45.161Z,28.36
2019-02-18T15:04:16.880Z,28.32
2019-02-18T15:06:48.190Z,28.24
2019-02-18T15:09:19.471Z,28.21
2019-02-18T15:11:50.692Z,28.24
2019-02-18T15:14:21.978Z,28.21
2019-02-18T15:16:57.765Z,28.23
2019-02-18T15:19:30.240Z,28.37
2019-02-18T15:22:01.540Z,28.50
2019-02-18T15:24:32.896Z,28.66
2019-02-18T15:27:04.325Z,28.83
2019-02-18T15:29:36.025Z,29.03
2019-02-18T15:32:07.500Z,29.12
2019-02-18T15:34:38.847Z,29.26
2019-02-18T15:37:10.214Z,29.41
2019-02-18T15:39:41.528Z,29.50
2019-02-18T15:42:13.165Z,29.55
2019-02-18T15:44:44.404Z,29.69
2019-02-18T15:47:15.784Z,29.82
2019-02-18T15:49:47.130Z,29.92
2019-02-18T15:52:18.459Z,30.06
2019-02-18T15:54:49.927Z,30.20
2019-02-18T15:57:21.122Z,30.36
2019-02-18T15:59:52.344Z,30.57
2019-02-18T16:02:23.610Z,30.76
2019-02-18T16:04:54.809Z,30.99
2019-02-18T16:07:26.569Z,31.24
2019-02-18T16:09:57.886Z,31.42
2019-02-18T16:12:30.112Z,31.68
2019-02-18T16:15:01.328Z,31.89
2019-02-18T16:17:32.547Z,32.12
2019-02-18T16:20:04.498Z,32.30
2019-02-18T16:22:35.766Z,32.54
2019-02-18T16:25:09.574Z,32.74
2019-02-18T16:27:40.934Z,32.96
2019-02-18T16:30:13.724Z,33.18
2019-02-18T16:32:45.440Z,33.42
2019-02-18T16:35:16.683Z,33.63
2019-02-18T16:37:48.040Z,33.82
2019-02-18T16:40:19.424Z,34.03
2019-02-18T16:42:58.993Z,34.21
2019-02-18T16:45:25.428Z,34.38
2019-02-18T16:47:56.810Z,34.57
2019-02-18T16:50:28.029Z,34.74
2019-02-18T16:52:59.493Z,34.93
2019-02-18T16:55:30.835Z,35.09
2019-02-18T16:58:02.098Z,35.30
2019-02-18T17:00:34.110Z,35.46
2019-02-18T17:03:05.376Z,35.63
2019-02-18T17:05:36.586Z,35.80
2019-02-18T17:08:07.883Z,35.96
2019-02-18T17:10:39.115Z,36.14
2019-02-18T17:13:10.307Z,36.31
2019-02-18T17:15:41.579Z,36.47
2019-02-18T17:18:12.865Z,36.62
2019-02-18T17:20:45.069Z,36.78
2019-02-18T17:23:16.586Z,36.94
2019-02-18T17:25:47.980Z,37.06
2019-02-18T17:28:19.305Z,37.20
2019-02-18T17:30:50.703Z,37.34
2019-02-18T17:33:21.994Z,37.46
2019-02-18T17:35:53.498Z,37.60
2019-02-18T17:38:25.817Z,37.73
2019-02-18T17:40:57.190Z,37.85
2019-02-18T17:43:28.472Z,38.04
2019-02-18T17:45:59.851Z,38.19
2019-02-18T17:48:31.474Z,38.34
2019-02-18T17:51:02.809Z,38.50
2019-02-18T17:53:34.059Z,38.66
2019-02-18T17:56:05.390Z,38.78
2019-02-18T17:58:36.943Z,38.93
2019-02-18T18:01:08.721Z,39.04
2019-02-18T18:03:40.066Z,39.14
2019-02-18T18:06:11.422Z,39.26
2019-02-18T18:08:42.866Z,39.34
2019-02-18T18:11:14.197Z,39.44
2019-02-18T18:13:46.913Z,39.54
2019-02-18T18:16:18.180Z,39.59
2019-02-18T18:18:49.554Z,39.66
2019-02-18T18:21:20.927Z,39.71
2019-02-18T18:23:52.251Z,39.80
2019-02-18T18:26:23.865Z,39.85
2019-02-18T18:28:55.100Z,39.94
2019-02-18T18:31:26.374Z,40.02
2019-02-18T18:33:57.609Z,40.12
2019-02-18T18:36:28.830Z,40.21
2019-02-18T18:39:00.087Z,40.29
2019-02-18T18:41:31.787Z,40.38
2019-02-18T18:44:03.140Z,40.44
2019-02-18T18:46:34.450Z,40.50
2019-02-18T18:49:05.737Z,40.59
2019-02-18T18:51:37.369Z,40.66
2019-02-18T18:54:08.603Z,40.76
2019-02-18T18:56:39.895Z,40.83
2019-02-18T18:59:11.387Z,40.90
2019-02-18T19:01:42.641Z,41.00
2019-02-18T19:04:14.247Z,41.09
2019-02-18T19:06:45.565Z,41.16
2019-02-18T19:09:16.789Z,41.22
2019-02-18T19:11:48.123Z,41.28
2019-02-18T19:14:19.350Z,41.33
2019-02-18T19:16:50.876Z,41.41
2019-02-18T19:19:22.047Z,41.51
2019-02-18T19:21:53.344Z,41.57
2019-02-18T19:24:24.560Z,41.67
2019-02-18T19:26:55.762Z,41.73
2019-02-18T19:29:27.233Z,41.84
2019-02-18T19:31:58.574Z,41.92
2019-02-18T19:34:29.800Z,42.02
2019-02-18T19:37:01.173Z,42.11
2019-02-18T19:39:32.532Z,42.19
2019-02-18T19:42:03.885Z,42.26
2019-02-18T19:44:35.132Z,42.36
2019-02-18T19:47:06.408Z,42.42
2019-02-18T19:49:37.574Z,42.52
2019-02-18T19:52:09.972Z,42.58
2019-02-18T19:54:41.281Z,42.64
2019-02-18T19:57:14.104Z,42.69
2019-02-18T19:59:45.353Z,42.76
2019-02-18T20:02:16.591Z,42.80
2019-02-18T20:04:47.772Z,42.85
2019-02-18T20:07:19.065Z,42.88
2019-02-18T20:09:50.305Z,42.93
2019-02-18T20:12:22.454Z,42.96
2019-02-18T20:14:54.070Z,43.01
2019-02-18T20:17:25.368Z,43.09
2019-02-18T20:19:56.905Z,43.16
2019-02-18T20:22:28.088Z,43.21
2019-02-18T20:24:59.434Z,43.29
2019-02-18T20:27:30.768Z,43.35
2019-02-18T20:30:02.214Z,43.39
2019-02-18T20:32:34.958Z,43.46
2019-02-18T20:35:06.507Z,43.51
2019-02-18T20:37:37.684Z,43.61
2019-02-18T20:40:09.032Z,43.67
2019-02-18T20:42:40.724Z,43.77
2019-02-18T20:45:12.706Z,43.82
2019-02-18T20:47:44.095Z,43.92
2019-02-18T20:50:15.437Z,43.98
2019-02-18T20:52:48.283Z,44.05
2019-02-18T20:55:21.009Z,44.10
2019-02-18T20:57:52.205Z,44.16
2019-02-18T21:00:23.462Z,44.22
2019-02-18T21:02:55.014Z,44.28
2019-02-18T21:05:26.336Z,44.30
2019-02-18T21:07:58.148Z,44.35
2019-02-18T21:10:29.571Z,44.40
2019-02-18T21:13:00.875Z,44.44
2019-02-18T21:15:32.204Z,44.50
2019-02-18T21:18:03.837Z,44.56
2019-02-18T21:20:35.897Z,44.61
2019-02-18T21:23:07.440Z,44.67
2019-02-18T21:25:38.966Z,44.71
2019-02-18T21:28:10.488Z,44.75
2019-02-18T21:30:42.726Z,44.80
2019-02-18T21:33:14.481Z,44.84
2019-02-18T21:35:45.743Z,44.91
2019-02-18T21:38:16.953Z,44.97
2019-02-18T21:40:48.264Z,45.04
2019-02-18T21:43:19.605Z,45.06
2019-02-18T21:45:51.115Z,45.11
2019-02-18T21:48:22.469Z,45.13
2019-02-18T21:50:53.719Z,45.17
2019-02-18T21:53:25.037Z,45.21
2019-02-18T21:55:56.235Z,45.21
2019-02-18T21:58:28.775Z,45.24
2019-02-18T22:01:00.060Z,45.27
2019-02-18T22:03:31.206Z,45.30
2019-02-18T22:06:02.543Z,45.34
2019-02-18T22:08:33.846Z,45.35
2019-02-18T22:11:05.425Z,45.42
2019-02-18T22:13:36.733Z,45.48
2019-02-18T22:16:08.041Z,45.54
2019-02-18T22:18:39.337Z,45.62
2019-02-18T22:21:13.425Z,45.69
2019-02-18T22:23:45.798Z,45.74
2019-02-18T22:26:17.083Z,45.81
2019-02-18T22:28:48.290Z,45.85
2019-02-18T22:31:19.544Z,45.89
2019-02-18T22:33:50.839Z,45.93
2019-02-18T22:36:22.077Z,46.00
2019-02-18T22:38:53.247Z,46.04
2019-02-18T22:41:25.408Z,46.07
2019-02-18T22:43:56.642Z,46.13
2019-02-18T22:46:27.945Z,46.20
2019-02-18T22:48:59.259Z,46.27
2019-02-18T22:51:30.806Z,46.34
2019-02-18T22:54:02.124Z,46.42
2019-02-18T22:56:33.368Z,46.49
2019-02-18T22:59:04.749Z,46.57
2019-02-18T23:01:36.035Z,46.62
2019-02-18T23:04:07.559Z,46.69
2019-02-18T23:06:38.795Z,46.75
2019-02-18T23:09:12.538Z,46.84
2019-02-18T23:11:43.791Z,46.93
2019-02-18T23:14:14.960Z,46.98
2019-02-18T23:16:46.587Z,47.03
2019-02-18T23:19:17.912Z,47.06
2019-02-18T23:21:50.454Z,47.09
2019-02-18T23:24:21.678Z,47.13
2019-02-18T23:26:52.931Z,47.17
2019-02-18T23:29:24.149Z,47.29
2019-02-18T23:31:55.358Z,47.29
2019-02-18T23:34:27.548Z,47.30
2019-02-18T23:36:58.718Z,47.31
2019-02-18T23:39:29.925Z,47.36
2019-02-18T23:42:01.374Z,47.37
2019-02-18T23:44:32.587Z,47.42
2019-02-18T23:47:03.783Z,47.47
2019-02-18T23:49:35.128Z,47.49
2019-02-18T23:52:06.431Z,47.52
2019-02-18T23:54:37.824Z,47.73
2019-02-18T23:57:08.946Z,47.77
2019-02-18T23:59:40.127Z,47.94
